»·PEaware :: VRD1969 KSAN-KSFO

VRD1969 :: KSAN-KSFO

FLIGHT INFORMATION

Flight Status: Arrived
Operator:
Virgin America
More flights by this operator :: More flights under this callsign
Pilot: Evan H. (11783)
Aircraft: AIRBUS A320
(A320)
More flights by this aircraft type
Origin: KSAN San Diego Intl-Lindbergh
United States
Destination: KSFO San Francisco Intl
United States
More flights between these airports :: More routes between these airports
Route: PADRZ1 IKAYE RIZIN SPLNT STOKD SERFR SERFR2
File this flight plan on PilotEdge
Remarks: PBN / A1B1C1D1L1O1S1 NAV / RNVD1E2A1 DOF / 171130 REG / N885VA EET / KZOA0036 RVR / 75 PER / C
Altitude:
(Current/Filed)
36,000ft
Speed:
(Current/Filed)
452kts
Departed: 29-Nov-17 07:30 PM
Arrived: 29-Nov-17 08:33 PM
Distance/Time
Traveled:
388nm/1:03
Distance/Time
To Go:
Arrived

Flight Plot

Page will automatically refresh every two minutes.

Flight plan parsing failed; only flown route is shown


Map Options




Map Legend


Flown Route
Filed Route
Departure Airport
Arrival Airport
Navaid (VOR, NDB)
Fix

Horizontal Profiles

Position Reports

Time Latitude Longitude Heading Altitude Ground
Speed
29-Nov-17 19:10 32.732514 -117.203289 223 29ft 0kts
29-Nov-17 19:11 32.732514 -117.203289 223 29ft 0kts
29-Nov-17 19:12 32.732514 -117.203289 223 29ft 0kts
29-Nov-17 19:13 32.732514 -117.203289 223 29ft 0kts
29-Nov-17 19:14 32.732514 -117.203289 223 29ft 0kts
29-Nov-17 19:15 32.732514 -117.203289 223 29ft 0kts
29-Nov-17 19:16 32.732514 -117.203289 223 29ft 0kts
29-Nov-17 19:17 32.732514 -117.203289 223 29ft 0kts
29-Nov-17 19:18 32.732514 -117.203289 223 29ft 0kts
29-Nov-17 19:19 32.732514 -117.203289 223 29ft 0kts
29-Nov-17 19:20 32.732514 -117.203289 223 29ft 0kts
29-Nov-17 19:21 32.732514 -117.203289 223 29ft 0kts
29-Nov-17 19:22 32.732514 -117.203289 223 29ft 0kts
29-Nov-17 19:23 32.732514 -117.203289 223 29ft 0kts
29-Nov-17 19:24 32.732924 -117.202837 228 29ft 2kts
29-Nov-17 19:25 32.732819 -117.202485 345 29ft 1kts
29-Nov-17 19:26 32.732733 -117.202458 345 29ft 0kts
29-Nov-17 19:27 32.732734 -117.202459 345 29ft 0kts
29-Nov-17 19:28 32.732792 -117.202477 345 29ft 3kts
29-Nov-17 19:29 32.735201 -117.200700 109 29ft 17kts
29-Nov-17 19:30 32.733737 -117.194767 105 29ft 20kts
29-Nov-17 19:31 32.732026 -117.187650 105 29ft 25kts
29-Nov-17 19:32 32.730131 -117.179833 106 29ft 25kts
29-Nov-17 19:33 32.729527 -117.176698 71 29ft 0kts
29-Nov-17 19:34 32.730404 -117.176620 286 29ft 8kts
29-Nov-17 19:35 32.740194 -117.216064 294 1062ft 195kts
29-Nov-17 19:36 32.777369 -117.278472 301 3677ft 260kts
29-Nov-17 19:37 32.820644 -117.351194 306 7142ft 280kts
29-Nov-17 19:38 32.866718 -117.422421 305 9948ft 301kts
29-Nov-17 19:39 32.921790 -117.508035 304 11913ft 356kts
29-Nov-17 19:40 32.984707 -117.606064 305 14387ft 379kts
29-Nov-17 19:41 33.049737 -117.707652 306 16886ft 390kts
29-Nov-17 19:42 33.130137 -117.797105 320 19028ft 403kts
29-Nov-17 19:43 33.211077 -117.891959 311 20989ft 414kts
29-Nov-17 19:44 33.289053 -117.988570 313 22710ft 423kts
29-Nov-17 19:45 33.371750 -118.091250 312 24278ft 434kts
29-Nov-17 19:46 33.453322 -118.192627 312 25761ft 441kts
29-Nov-17 19:47 33.538927 -118.299479 311 27160ft 449kts
29-Nov-17 19:48 33.618590 -118.399141 310 28356ft 454kts
29-Nov-17 19:49 33.706794 -118.509763 309 29525ft 460kts
29-Nov-17 19:50 33.790234 -118.614800 308 30983ft 454kts
29-Nov-17 19:51 33.877162 -118.724546 307 32302ft 452kts
29-Nov-17 19:52 33.963753 -118.834311 306 33525ft 450kts
29-Nov-17 19:53 34.045825 -118.938421 307 34517ft 449kts
29-Nov-17 19:54 34.126866 -119.041730 307 35460ft 447kts
29-Nov-17 19:55 34.212060 -119.150687 307 36143ft 448kts
29-Nov-17 19:56 34.297149 -119.259647 308 36130ft 446kts
29-Nov-17 19:57 34.382344 -119.369292 308 36133ft 446kts
29-Nov-17 19:58 34.467301 -119.478917 308 36111ft 447kts
29-Nov-17 19:59 34.552162 -119.588787 309 36102ft 447kts
29-Nov-17 20:00 34.637159 -119.699147 309 36098ft 447kts
29-Nov-17 20:01 34.721861 -119.809535 309 36082ft 447kts
29-Nov-17 20:02 34.806509 -119.920094 309 36100ft 447kts
29-Nov-17 20:03 34.888506 -120.027674 311 36150ft 447kts
29-Nov-17 20:04 34.973142 -120.138947 311 36181ft 448kts
29-Nov-17 20:05 35.058064 -120.251084 312 36174ft 449kts
29-Nov-17 20:06 35.142550 -120.362932 312 36174ft 448kts
29-Nov-17 20:07 35.226867 -120.474903 312 36176ft 448kts
29-Nov-17 20:08 35.307767 -120.582758 312 36157ft 447kts
29-Nov-17 20:09 35.392344 -120.695810 312 36145ft 447kts
29-Nov-17 20:10 35.476253 -120.808187 315 36144ft 447kts
29-Nov-17 20:11 35.571417 -120.899665 324 36138ft 445kts
29-Nov-17 20:12 35.669976 -120.991359 323 36154ft 444kts
29-Nov-17 20:13 35.768657 -121.083240 324 36204ft 443kts
29-Nov-17 20:14 35.866297 -121.174615 324 35309ft 442kts
29-Nov-17 20:15 35.964399 -121.266711 325 33289ft 443kts
29-Nov-17 20:16 36.062329 -121.358860 326 30559ft 440kts
29-Nov-17 20:17 36.164672 -121.439610 330 27843ft 432kts
29-Nov-17 20:18 36.264682 -121.517927 329 25142ft 420kts
29-Nov-17 20:19 36.362302 -121.594451 329 22642ft 408kts
29-Nov-17 20:20 36.454008 -121.666484 328 20383ft 397kts
29-Nov-17 20:21 36.542736 -121.736531 328 19274ft 361kts
29-Nov-17 20:22 36.625845 -121.802308 327 17581ft 349kts
29-Nov-17 20:23 36.706481 -121.866275 326 16067ft 339kts
29-Nov-17 20:24 36.792806 -121.909286 347 14594ft 334kts
29-Nov-17 20:25 36.882624 -121.933438 345 13153ft 330kts
29-Nov-17 20:26 36.969927 -121.959789 341 12215ft 303kts
29-Nov-17 20:27 37.049816 -121.991205 342 10382ft 298kts
29-Nov-17 20:28 37.127532 -122.021585 341 9154ft 285kts
29-Nov-17 20:29 37.201188 -122.050434 343 7952ft 269kts
29-Nov-17 20:30 37.267319 -122.076440 343 6867ft 256kts
29-Nov-17 20:31 37.338620 -122.104704 342 5906ft 252kts
29-Nov-17 20:32 37.401970 -122.129778 343 4985ft 223kts
29-Nov-17 20:33 37.460449 -122.152781 345 4985ft 219kts
29-Nov-17 20:34 37.516149 -122.180387 324 4272ft 219kts
29-Nov-17 20:35 37.558065 -122.238350 297 2306ft 230kts
29-Nov-17 20:36 37.587453 -122.300719 297 1359ft 197kts
29-Nov-17 20:37 37.611609 -122.358036 297 106ft 161kts
29-Nov-17 20:38 37.622984 -122.385341 264 27ft 21kts
29-Nov-17 20:39 37.621599 -122.386454 160 27ft 6kts
29-Nov-17 20:40 37.620431 -122.383859 117 27ft 13kts
29-Nov-17 20:41 37.617243 -122.379445 184 27ft 18kts
29-Nov-17 20:42 37.616721 -122.380478 300 27ft 0kts
29-Nov-17 20:43 37.616721 -122.380478 300 27ft 0kts

Navigation Log

Ident Type
Flight plan parsing failed, navigation log unavailable